createdAt,value
2023-01-15T00:07:28.162Z,0.90
2023-01-15T00:17:30.994Z,0.75
2023-01-15T00:27:41.052Z,0.68
2023-01-15T00:37:44.029Z,1.43
2023-01-15T00:47:50.498Z,1.15
2023-01-15T00:57:53.200Z,1.17
2023-01-15T01:07:59.121Z,0.90
2023-01-15T01:18:01.915Z,0.80
2023-01-15T01:28:06.157Z,0.82
2023-01-15T01:38:08.879Z,1.10
2023-01-15T01:48:13.866Z,1.23
2023-01-15T01:58:17.545Z,1.45
2023-01-15T02:08:22.432Z,1.00
2023-01-15T02:18:30.701Z,1.13
2023-01-15T02:28:37.142Z,1.13
2023-01-15T02:38:45.341Z,1.30
2023-01-15T02:48:55.464Z,1.08
2023-01-15T02:59:02.125Z,1.27
2023-01-15T03:09:07.069Z,1.75
2023-01-15T03:19:26.500Z,0.80
2023-01-15T03:29:34.561Z,1.08
2023-01-15T03:39:37.365Z,1.20
2023-01-15T03:49:59.790Z,1.00
2023-01-15T04:00:08.145Z,1.55
2023-01-15T04:10:13.155Z,1.45
2023-01-15T04:20:16.004Z,0.82
2023-01-15T04:30:20.184Z,2.55
2023-01-15T04:40:36.823Z,0.90
2023-01-15T04:50:41.011Z,1.17
2023-01-15T05:00:44.836Z,1.08
2023-01-15T05:10:48.846Z,1.27
2023-01-15T05:20:51.844Z,1.88
2023-01-15T05:30:55.930Z,1.67
2023-01-15T05:40:58.702Z,1.45
2023-01-15T05:51:04.347Z,0.93
2023-01-15T06:01:08.627Z,1.08
2023-01-15T06:11:13.501Z,1.15
2023-01-15T06:21:16.972Z,1.30
2023-01-15T06:31:23.137Z,2.05
2023-01-15T06:41:45.318Z,1.60
2023-01-15T06:51:49.359Z,0.90
2023-01-15T07:01:52.091Z,1.40
2023-01-15T07:11:56.205Z,1.05
2023-01-15T07:21:59.034Z,1.17
2023-01-15T07:32:03.231Z,1.02
2023-01-15T07:42:23.370Z,1.55
2023-01-15T07:52:27.369Z,0.80
2023-01-15T08:02:30.040Z,1.02
2023-01-15T08:12:57.589Z,0.80
2023-01-15T08:23:02.227Z,1.30
2023-01-15T08:33:06.272Z,1.58
2023-01-15T08:43:08.909Z,0.98
2023-01-15T08:53:13.270Z,1.20
2023-01-15T09:03:16.192Z,1.13
2023-01-15T09:13:20.176Z,1.17
2023-01-15T09:23:22.847Z,1.23
2023-01-15T09:33:30.068Z,2.08
2023-01-15T09:43:50.793Z,0.70
2023-01-15T09:54:17.392Z,1.65
2023-01-15T10:04:35.309Z,0.70
2023-01-15T10:14:45.697Z,0.50
2023-01-15T10:24:56.766Z,0.50
2023-01-15T10:35:25.171Z,0.80
2023-01-15T10:45:30.513Z,1.10
2023-01-15T10:55:37.932Z,1.15
2023-01-15T11:05:40.674Z,0.80
2023-01-15T11:16:06.806Z,0.90
2023-01-15T11:26:11.175Z,0.65
2023-01-15T11:36:24.077Z,1.13
2023-01-15T11:46:43.858Z,0.98
2023-01-15T11:56:48.495Z,1.23
2023-01-15T12:06:51.471Z,1.02
2023-01-15T12:17:03.401Z,1.30
2023-01-15T12:27:32.542Z,1.27
2023-01-15T12:37:41.496Z,1.08
2023-01-15T12:47:48.856Z,1.25
2023-01-15T12:57:56.744Z,1.40
2023-01-15T13:08:03.131Z,1.40
2023-01-15T13:18:18.671Z,1.10
2023-01-15T13:28:44.607Z,1.10
2023-01-15T13:38:54.332Z,1.08
2023-01-15T13:48:57.830Z,1.53
2023-01-15T13:59:03.312Z,1.10
2023-01-15T14:09:06.853Z,1.60
2023-01-15T14:19:24.184Z,0.90
2023-01-15T14:29:42.102Z,0.55
2023-01-15T14:39:50.252Z,0.30
2023-01-15T14:50:02.138Z,0.30
2023-01-15T15:00:10.986Z,0.40
2023-01-15T15:10:22.098Z,0.50
2023-01-15T15:20:32.574Z,0.30
2023-01-15T15:30:37.449Z,0.40
2023-01-15T15:40:47.210Z,0.40
2023-01-15T15:50:49.983Z,0.30
2023-01-15T16:00:55.620Z,0.30
2023-01-15T16:11:01.441Z,0.30
2023-01-15T16:21:05.948Z,0.50
2023-01-15T16:31:08.956Z,0.30
2023-01-15T16:41:20.651Z,0.93
2023-01-15T16:51:29.873Z,0.30
2023-01-15T17:01:42.132Z,0.88
2023-01-15T17:11:51.114Z,0.30
2023-01-15T17:21:55.206Z,0.40
2023-01-15T17:31:57.933Z,1.80
2023-01-15T17:42:02.129Z,1.25
2023-01-15T17:52:06.822Z,1.23
2023-01-15T18:02:33.003Z,1.48
2023-01-15T18:12:35.853Z,1.35
2023-01-15T18:22:40.270Z,2.03
2023-01-15T18:32:44.278Z,2.55
2023-01-15T18:43:05.844Z,1.90
2023-01-15T18:53:08.889Z,2.15
2023-01-15T19:03:12.868Z,1.20
2023-01-15T19:13:18.208Z,0.80
2023-01-15T19:23:22.631Z,1.73
2023-01-15T19:33:28.945Z,1.75
2023-01-15T19:43:50.877Z,1.63
2023-01-15T19:53:53.561Z,1.80
2023-01-15T20:03:58.092Z,1.45
2023-01-15T20:14:00.716Z,1.42
2023-01-15T20:24:04.980Z,1.10
2023-01-15T20:34:07.701Z,1.30
2023-01-15T20:44:30.215Z,1.35
2023-01-15T20:54:32.891Z,1.17
2023-01-15T21:04:36.953Z,1.40
2023-01-15T21:14:39.700Z,2.92
2023-01-15T21:24:44.025Z,2.15
2023-01-15T21:34:46.839Z,3.55
2023-01-15T21:44:50.875Z,3.92
2023-01-15T21:55:03.265Z,4.22
2023-01-15T22:05:09.005Z,4.22
2023-01-15T22:15:12.393Z,3.95
2023-01-15T22:25:16.768Z,3.70
2023-01-15T22:35:23.473Z,2.92
2023-01-15T22:45:27.569Z,2.78
2023-01-15T22:55:30.298Z,2.28
2023-01-15T23:05:39.014Z,2.13
2023-01-15T23:15:42.136Z,2.45
2023-01-15T23:25:46.252Z,2.30
2023-01-15T23:35:49.080Z,1.98
2023-01-15T23:46:10.865Z,2.17
2023-01-15T23:56:13.851Z,2.08
